createdAt,value
2022-11-30T00:01:45.001Z,10.50
2022-11-30T00:04:32.542Z,12.15
2022-11-30T00:07:20.328Z,10.00
2022-11-30T00:10:09.077Z,8.13
2022-11-30T00:12:55.887Z,9.90
2022-11-30T00:15:44.661Z,10.13
2022-11-30T00:18:31.623Z,8.15
2022-11-30T00:21:19.095Z,10.88
2022-11-30T00:24:07.069Z,8.68
2022-11-30T00:26:54.349Z,12.18
2022-11-30T00:29:41.211Z,8.43
2022-11-30T00:32:29.856Z,9.27
2022-11-30T00:35:17.879Z,11.45
2022-11-30T00:38:05.226Z,10.95
2022-11-30T00:40:52.324Z,9.02
2022-11-30T00:43:39.951Z,7.32
2022-11-30T00:46:26.965Z,8.48
2022-11-30T00:49:15.732Z,10.07
2022-11-30T00:52:02.531Z,9.82
2022-11-30T00:54:49.893Z,11.00
2022-11-30T00:57:36.617Z,8.75
2022-11-30T01:00:24.222Z,7.95
2022-11-30T01:03:11.761Z,10.85
2022-11-30T01:06:04.104Z,10.05
2022-11-30T01:08:50.980Z,9.18
2022-11-30T01:11:38.118Z,9.27
2022-11-30T01:14:24.942Z,11.15
2022-11-30T01:17:12.430Z,10.05
2022-11-30T01:19:59.559Z,11.55
2022-11-30T01:22:48.191Z,8.00
2022-11-30T01:25:35.320Z,10.38
2022-11-30T01:28:22.560Z,12.85
2022-11-30T01:31:11.797Z,11.57
2022-11-30T01:34:05.072Z,8.50
2022-11-30T01:36:52.117Z,10.35
2022-11-30T01:39:40.822Z,9.55
2022-11-30T01:42:28.042Z,14.40
2022-11-30T01:45:15.914Z,10.40
2022-11-30T01:48:03.178Z,10.25
2022-11-30T01:50:50.242Z,10.13
2022-11-30T01:53:37.153Z,10.32
2022-11-30T01:56:26.600Z,12.15
2022-11-30T01:59:14.587Z,10.45
2022-11-30T02:02:02.071Z,9.50
2022-11-30T02:04:49.394Z,11.43
2022-11-30T02:07:36.491Z,12.63
2022-11-30T02:10:27.913Z,9.15
2022-11-30T02:13:32.452Z,13.38
2022-11-30T02:16:26.365Z,11.45
2022-11-30T02:19:50.732Z,12.00
2022-11-30T02:23:01.915Z,14.00
2022-11-30T02:25:58.005Z,11.48
2022-11-30T02:29:03.361Z,13.23
2022-11-30T02:31:55.693Z,11.00
2022-11-30T02:34:47.341Z,11.23
2022-11-30T02:37:36.364Z,13.50
2022-11-30T02:40:23.880Z,12.30
2022-11-30T02:43:10.499Z,15.63
2022-11-30T02:46:08.155Z,14.50
2022-11-30T02:49:06.182Z,13.62
2022-11-30T02:51:56.499Z,15.40
2022-11-30T02:54:43.358Z,15.85
2022-11-30T02:57:30.842Z,11.77
2022-11-30T03:00:18.808Z,17.08
2022-11-30T03:03:07.304Z,14.68
2022-11-30T03:05:54.278Z,11.02
2022-11-30T03:08:41.578Z,13.55
2022-11-30T03:11:28.588Z,15.48
2022-11-30T03:14:15.615Z,12.02
2022-11-30T03:17:02.405Z,14.15
2022-11-30T03:19:50.965Z,13.43
2022-11-30T03:22:37.869Z,16.55
2022-11-30T03:25:24.706Z,19.90
2022-11-30T03:28:11.543Z,17.12
2022-11-30T03:30:58.874Z,14.63
2022-11-30T03:33:45.765Z,14.55
2022-11-30T03:36:34.206Z,17.17
2022-11-30T03:39:21.033Z,15.77
2022-11-30T03:42:08.440Z,13.90
2022-11-30T03:44:55.376Z,13.75
2022-11-30T03:47:42.594Z,12.98
2022-11-30T03:50:29.593Z,18.17
2022-11-30T03:53:18.844Z,15.18
2022-11-30T03:56:07.902Z,15.30
2022-11-30T03:58:54.795Z,14.90
2022-11-30T04:01:41.960Z,16.02
2022-11-30T04:04:28.962Z,17.70
2022-11-30T04:07:15.713Z,15.23
2022-11-30T04:10:08.423Z,13.70
2022-11-30T04:12:55.527Z,15.63
2022-11-30T04:15:42.528Z,16.75
2022-11-30T04:18:31.470Z,16.85
2022-11-30T04:21:19.277Z,16.17
2022-11-30T04:24:06.984Z,18.70
2022-11-30T04:26:55.451Z,17.08
2022-11-30T04:29:42.328Z,16.17
2022-11-30T04:32:29.732Z,15.88
2022-11-30T04:35:16.950Z,18.95
2022-11-30T04:38:04.327Z,19.77
2022-11-30T04:40:51.235Z,17.37
2022-11-30T04:43:39.609Z,17.40
2022-11-30T04:46:26.517Z,20.05
2022-11-30T04:49:13.310Z,15.95
2022-11-30T04:51:59.939Z,17.00
2022-11-30T04:54:47.527Z,16.75
2022-11-30T04:57:34.583Z,18.58
2022-11-30T05:00:23.664Z,18.02
2022-11-30T05:03:10.537Z,18.35
2022-11-30T05:05:57.841Z,19.10
2022-11-30T05:08:45.170Z,17.08
2022-11-30T05:11:32.743Z,17.55
2022-11-30T05:14:19.436Z,19.85
2022-11-30T05:17:07.695Z,20.65
2022-11-30T05:19:54.504Z,15.88
2022-11-30T05:22:41.887Z,17.60
2022-11-30T05:25:28.629Z,20.67
2022-11-30T05:28:15.768Z,27.65
2022-11-30T05:31:04.843Z,20.27
2022-11-30T05:33:53.992Z,20.17
2022-11-30T05:36:40.795Z,18.40
2022-11-30T05:39:28.119Z,17.80
2022-11-30T05:42:15.051Z,18.62
2022-11-30T05:45:02.135Z,21.33
2022-11-30T05:47:50.316Z,18.35
2022-11-30T05:50:38.609Z,23.23
2022-11-30T05:53:25.392Z,21.00
2022-11-30T05:56:14.761Z,20.83
2022-11-30T05:59:01.242Z,19.98
2022-11-30T06:01:48.754Z,18.67
2022-11-30T06:04:36.516Z,21.25
2022-11-30T06:07:24.887Z,18.98
2022-11-30T06:10:13.487Z,21.52
2022-11-30T06:13:00.390Z,24.77
2022-11-30T06:15:47.921Z,25.27
2022-11-30T06:18:34.928Z,21.00
2022-11-30T06:21:24.706Z,22.20
2022-11-30T06:24:13.202Z,23.62
2022-11-30T06:27:00.578Z,20.50
2022-11-30T06:29:47.472Z,21.48
2022-11-30T06:32:34.925Z,25.85
2022-11-30T06:35:22.051Z,23.83
2022-11-30T06:38:09.390Z,25.65
2022-11-30T06:41:04.775Z,25.85
2022-11-30T06:43:51.904Z,27.42
2022-11-30T06:46:38.920Z,23.90
2022-11-30T06:49:26.580Z,29.55
2022-11-30T06:52:13.471Z,29.75
2022-11-30T06:55:00.799Z,25.67
2022-11-30T06:57:49.104Z,22.58
2022-11-30T07:00:37.734Z,23.75
2022-11-30T07:03:24.706Z,27.33
2022-11-30T07:06:13.716Z,30.62
2022-11-30T07:09:00.667Z,26.70
2022-11-30T07:11:47.367Z,30.98
2022-11-30T07:14:35.638Z,35.08
2022-11-30T07:17:22.772Z,26.62
2022-11-30T07:20:10.399Z,27.75
2022-11-30T07:22:58.104Z,27.08
2022-11-30T07:26:02.339Z,33.35
2022-11-30T07:28:54.684Z,26.77
2022-11-30T07:31:43.098Z,22.77
2022-11-30T07:34:30.385Z,25.75
2022-11-30T07:37:17.812Z,36.35
2022-11-30T07:40:05.671Z,29.85
2022-11-30T07:42:58.193Z,26.95
2022-11-30T07:45:52.667Z,30.85
2022-11-30T07:48:41.387Z,26.05
2022-11-30T07:51:28.198Z,30.77
2022-11-30T07:54:15.232Z,27.85
2022-11-30T07:57:02.530Z,29.98
2022-11-30T07:59:49.664Z,31.15
2022-11-30T08:02:37.286Z,36.50
2022-11-30T08:05:26.044Z,24.35
2022-11-30T08:08:12.837Z,27.95
2022-11-30T08:11:00.261Z,35.30
2022-11-30T08:13:47.269Z,33.83
2022-11-30T08:16:38.260Z,26.83
2022-11-30T08:19:24.789Z,22.90
2022-11-30T08:22:12.865Z,28.52
2022-11-30T08:24:59.655Z,33.92
2022-11-30T08:27:46.913Z,32.40
2022-11-30T08:30:33.866Z,31.10
2022-11-30T08:33:21.107Z,29.10
2022-11-30T08:36:09.675Z,25.33
2022-11-30T08:39:00.471Z,27.40
2022-11-30T08:41:47.163Z,32.85
2022-11-30T08:44:34.394Z,33.88
2022-11-30T08:47:21.467Z,36.10
2022-11-30T08:50:09.749Z,29.35
2022-11-30T08:52:59.444Z,27.60
2022-11-30T08:55:58.209Z,29.23
2022-11-30T08:58:45.516Z,33.05
2022-11-30T09:01:33.320Z,30.00
2022-11-30T09:04:20.319Z,31.58
2022-11-30T09:07:07.406Z,30.83
2022-11-30T09:09:54.216Z,28.80
2022-11-30T09:12:43.900Z,30.33
2022-11-30T09:15:31.063Z,32.42
2022-11-30T09:18:18.540Z,28.10
2022-11-30T09:21:08.462Z,32.80
2022-11-30T09:23:57.276Z,29.77
2022-11-30T09:26:44.250Z,30.35
2022-11-30T09:29:32.498Z,27.10
2022-11-30T09:32:19.286Z,32.97
2022-11-30T09:35:12.477Z,31.73
2022-11-30T09:37:59.702Z,28.23
2022-11-30T09:40:47.469Z,31.33
2022-11-30T09:43:45.716Z,28.55
2022-11-30T09:46:40.635Z,29.30
2022-11-30T09:49:31.351Z,29.52
2022-11-30T09:52:19.982Z,29.23
2022-11-30T09:55:10.778Z,31.05
2022-11-30T09:58:01.890Z,33.97
2022-11-30T10:00:49.096Z,27.45
2022-11-30T10:03:37.754Z,31.77
2022-11-30T10:06:32.859Z,27.42
2022-11-30T10:09:32.882Z,27.85
2022-11-30T10:12:27.783Z,28.48
2022-11-30T10:15:35.997Z,30.90
2022-11-30T10:18:30.256Z,30.88
2022-11-30T10:21:33.765Z,29.90
2022-11-30T10:24:33.513Z,30.27
2022-11-30T10:27:36.263Z,29.42
2022-11-30T10:30:34.549Z,32.10
2022-11-30T10:33:29.265Z,28.50
2022-11-30T10:36:27.783Z,30.67
2022-11-30T10:39:21.240Z,27.45
2022-11-30T10:42:13.911Z,26.83
2022-11-30T10:45:05.663Z,24.98
2022-11-30T10:48:01.880Z,26.52
2022-11-30T10:50:49.303Z,28.02
2022-11-30T10:53:37.952Z,27.92
2022-11-30T10:56:24.749Z,29.02
2022-11-30T10:59:17.620Z,30.12
2022-11-30T11:02:29.372Z,30.62
2022-11-30T11:05:20.217Z,28.20
2022-11-30T11:08:20.222Z,25.40
2022-11-30T11:11:28.159Z,24.00
2022-11-30T11:14:18.986Z,30.33
2022-11-30T11:17:07.977Z,28.67
2022-11-30T11:19:54.802Z,25.23
2022-11-30T11:22:44.885Z,30.77
2022-11-30T11:25:36.510Z,28.62
2022-11-30T11:28:25.515Z,25.25
2022-11-30T11:31:20.970Z,24.12
2022-11-30T11:34:24.755Z,26.45
2022-11-30T11:37:18.949Z,22.85
2022-11-30T11:40:16.093Z,28.83
2022-11-30T11:43:04.237Z,24.10
2022-11-30T11:45:55.213Z,29.20
2022-11-30T11:48:49.878Z,24.77
2022-11-30T11:51:39.793Z,24.25
2022-11-30T11:54:31.947Z,26.73
2022-11-30T11:57:22.237Z,24.85
2022-11-30T12:00:17.523Z,30.08
2022-11-30T12:03:15.332Z,29.12
2022-11-30T12:06:08.465Z,26.75
2022-11-30T12:08:59.666Z,26.20
2022-11-30T12:11:48.236Z,25.90
2022-11-30T12:14:35.644Z,24.48
2022-11-30T12:17:36.286Z,24.75
2022-11-30T12:20:33.201Z,28.15
2022-11-30T12:23:47.158Z,28.55
2022-11-30T12:26:41.794Z,22.35
2022-11-30T12:29:42.371Z,28.12
2022-11-30T12:32:41.918Z,25.35
2022-11-30T12:35:38.090Z,25.10
2022-11-30T12:38:37.829Z,22.23
2022-11-30T12:41:36.071Z,24.12
2022-11-30T12:44:41.629Z,23.55
2022-11-30T12:47:44.519Z,21.55
2022-11-30T12:50:44.730Z,24.08
2022-11-30T12:53:36.326Z,26.02
2022-11-30T12:56:34.197Z,24.75
2022-11-30T12:59:29.359Z,27.87
2022-11-30T13:02:41.797Z,23.67
2022-11-30T13:05:34.995Z,25.23
2022-11-30T13:08:28.704Z,25.12
2022-11-30T13:11:19.837Z,20.98
2022-11-30T13:14:14.694Z,26.30
2022-11-30T13:17:04.823Z,24.33
2022-11-30T13:19:59.881Z,25.42
2022-11-30T13:22:53.632Z,24.27
2022-11-30T13:29:08.814Z,30.42
2022-11-30T13:32:05.385Z,28.17
2022-11-30T13:34:52.815Z,25.52
2022-11-30T13:37:40.763Z,24.05
2022-11-30T13:40:27.539Z,22.15
2022-11-30T13:43:22.621Z,23.98
2022-11-30T13:46:16.742Z,25.25
2022-11-30T13:49:19.801Z,24.48
2022-11-30T13:52:22.758Z,25.85
2022-11-30T13:55:51.095Z,22.67
2022-11-30T13:59:18.219Z,25.08
2022-11-30T14:02:53.797Z,24.23
2022-11-30T14:05:41.871Z,20.75
2022-11-30T14:08:34.927Z,23.83
2022-11-30T14:11:42.856Z,19.30
2022-11-30T14:14:47.801Z,19.37
2022-11-30T14:17:36.718Z,21.48
2022-11-30T14:20:27.873Z,22.62
2022-11-30T14:23:20.107Z,23.02
2022-11-30T14:26:11.384Z,23.23
2022-11-30T14:29:04.343Z,18.12
2022-11-30T14:31:58.444Z,23.05
2022-11-30T14:34:49.428Z,26.67
2022-11-30T14:37:42.871Z,20.50
2022-11-30T14:40:33.784Z,20.95
2022-11-30T14:43:21.316Z,21.83
2022-11-30T14:46:14.530Z,19.73
2022-11-30T14:49:13.720Z,24.08
2022-11-30T14:52:04.998Z,22.55
2022-11-30T14:54:57.423Z,18.87
2022-11-30T14:57:50.322Z,19.70
2022-11-30T15:00:40.638Z,23.60
2022-11-30T15:03:29.670Z,21.58
2022-11-30T15:06:19.444Z,27.20
2022-11-30T15:09:16.388Z,31.23
2022-11-30T15:12:03.524Z,22.67
2022-11-30T15:15:18.976Z,19.95
2022-11-30T15:18:15.134Z,22.50
2022-11-30T15:21:07.577Z,21.45
2022-11-30T15:23:58.193Z,21.02
2022-11-30T15:26:53.754Z,18.45
2022-11-30T15:29:47.566Z,21.67
2022-11-30T15:32:35.010Z,20.95
2022-11-30T15:35:24.501Z,18.70
2022-11-30T15:38:11.429Z,20.08
2022-11-30T15:41:04.919Z,22.23
2022-11-30T15:43:53.825Z,19.58
2022-11-30T15:46:46.617Z,18.12
2022-11-30T15:49:36.245Z,23.35
2022-11-30T15:52:27.504Z,19.12
2022-11-30T15:55:40.708Z,18.25
2022-11-30T15:58:32.196Z,19.50
2022-11-30T16:01:25.915Z,18.65
2022-11-30T16:04:13.082Z,20.20
2022-11-30T16:06:59.779Z,19.35
2022-11-30T16:09:47.050Z,17.20
2022-11-30T16:12:34.685Z,19.70
2022-11-30T16:15:25.677Z,19.73
2022-11-30T16:18:16.257Z,19.08
2022-11-30T16:21:03.786Z,16.77
2022-11-30T16:23:50.719Z,17.85
2022-11-30T16:26:53.361Z,18.58
2022-11-30T16:29:40.366Z,20.17
2022-11-30T16:32:28.580Z,15.60
2022-11-30T16:35:19.365Z,18.52
2022-11-30T16:38:06.764Z,17.70
2022-11-30T16:40:55.658Z,18.45
2022-11-30T16:43:42.942Z,20.75
2022-11-30T16:46:31.335Z,21.87
2022-11-30T16:49:20.108Z,23.60
2022-11-30T16:52:06.985Z,20.95
2022-11-30T16:54:54.287Z,20.67
2022-11-30T16:57:41.116Z,18.33
2022-11-30T17:00:28.869Z,18.00
2022-11-30T17:03:21.351Z,19.15
2022-11-30T17:06:15.073Z,22.40
2022-11-30T17:09:01.935Z,21.75
2022-11-30T17:11:51.151Z,29.52
2022-11-30T17:14:37.765Z,23.48
2022-11-30T17:17:24.953Z,25.08
2022-11-30T17:20:13.020Z,25.37
2022-11-30T17:23:01.352Z,29.77
2022-11-30T17:25:49.292Z,29.60
2022-11-30T17:28:36.403Z,27.40
2022-11-30T17:31:23.337Z,27.45
2022-11-30T17:34:10.787Z,31.25
2022-11-30T17:36:57.841Z,30.10
2022-11-30T17:39:46.523Z,26.80
2022-11-30T17:42:33.178Z,33.50
2022-11-30T17:45:20.465Z,36.53
2022-11-30T17:48:07.311Z,39.13
2022-11-30T17:50:54.176Z,35.45
2022-11-30T17:53:41.494Z,33.58
2022-11-30T17:56:29.728Z,32.50
2022-11-30T17:59:16.260Z,29.40
2022-11-30T18:02:03.622Z,34.47
2022-11-30T18:04:52.599Z,33.33
2022-11-30T18:07:39.367Z,37.90
2022-11-30T18:10:26.500Z,37.88
2022-11-30T18:13:15.124Z,40.53
2022-11-30T18:16:08.661Z,40.40
2022-11-30T18:18:57.500Z,35.70
2022-11-30T18:21:45.217Z,36.38
2022-11-30T18:24:32.125Z,41.33
2022-11-30T18:27:18.996Z,40.58
2022-11-30T18:30:10.404Z,35.90
2022-11-30T18:32:57.966Z,43.87
2022-11-30T18:35:44.773Z,30.85
2022-11-30T18:38:35.861Z,42.70
2022-11-30T18:41:26.464Z,39.78
2022-11-30T18:44:13.908Z,47.75
2022-11-30T18:47:05.640Z,40.25
2022-11-30T18:49:52.952Z,39.33
2022-11-30T18:52:40.672Z,39.47
2022-11-30T18:55:28.250Z,39.70
2022-11-30T18:58:16.150Z,49.95
2022-11-30T19:01:18.774Z,42.30
2022-11-30T19:04:11.706Z,37.83
2022-11-30T19:07:12.838Z,43.13
2022-11-30T19:10:00.369Z,39.03
2022-11-30T19:12:51.021Z,43.28
2022-11-30T19:15:39.788Z,44.08
2022-11-30T19:18:34.807Z,41.47
2022-11-30T19:21:24.236Z,43.20
2022-11-30T19:24:10.947Z,38.05
2022-11-30T19:26:57.771Z,38.95
2022-11-30T19:29:44.984Z,46.85
2022-11-30T19:32:31.781Z,43.97
2022-11-30T19:35:19.064Z,40.67
2022-11-30T19:38:07.152Z,40.83
2022-11-30T19:40:54.518Z,31.98
2022-11-30T19:43:41.694Z,34.90
2022-11-30T19:46:29.338Z,43.75
2022-11-30T19:49:16.074Z,37.33
2022-11-30T19:52:03.279Z,43.50
2022-11-30T19:54:51.442Z,42.70
2022-11-30T19:57:38.346Z,43.67
2022-11-30T20:00:25.247Z,36.85
2022-11-30T20:03:12.236Z,40.42
2022-11-30T20:05:58.929Z,46.92
2022-11-30T20:08:46.928Z,40.15
2022-11-30T20:11:35.714Z,37.75
2022-11-30T20:14:23.038Z,29.85
2022-11-30T20:17:10.007Z,38.47
2022-11-30T20:19:57.346Z,40.17
2022-11-30T20:22:44.255Z,38.03
2022-11-30T20:25:32.289Z,42.40
2022-11-30T20:28:20.568Z,40.83
2022-11-30T20:31:09.089Z,34.95
2022-11-30T20:33:56.193Z,40.58
2022-11-30T20:36:43.759Z,36.80
2022-11-30T20:39:30.603Z,48.95
2022-11-30T20:42:17.528Z,47.40
2022-11-30T20:45:06.565Z,40.67
2022-11-30T20:47:53.950Z,46.17
2022-11-30T20:50:40.907Z,45.70
2022-11-30T20:53:27.791Z,49.72
2022-11-30T20:56:15.134Z,49.40
2022-11-30T20:59:03.451Z,47.33
2022-11-30T21:01:51.557Z,39.28
2022-11-30T21:04:38.729Z,42.47
2022-11-30T21:07:25.687Z,44.67
2022-11-30T21:10:13.659Z,52.67
2022-11-30T21:13:00.355Z,45.80
2022-11-30T21:15:47.791Z,45.15
2022-11-30T21:18:36.238Z,41.40
2022-11-30T21:21:24.996Z,45.88
2022-11-30T21:24:12.794Z,44.20
2022-11-30T21:27:00.104Z,44.80
2022-11-30T21:29:47.014Z,46.65
2022-11-30T21:32:34.210Z,45.80
2022-11-30T21:35:22.784Z,46.47
2022-11-30T21:38:10.272Z,42.28
2022-11-30T21:40:58.205Z,45.65
2022-11-30T21:43:45.568Z,40.08
2022-11-30T21:46:32.665Z,44.53
2022-11-30T21:49:19.871Z,50.45
2022-11-30T21:52:07.778Z,46.10
2022-11-30T21:54:55.202Z,50.42
2022-11-30T21:57:42.193Z,46.90
2022-11-30T22:00:29.157Z,44.33
2022-11-30T22:03:19.430Z,43.20
2022-11-30T22:06:08.999Z,45.38
2022-11-30T22:09:03.380Z,37.35
2022-11-30T22:11:50.175Z,42.38
2022-11-30T22:14:37.358Z,53.33
2022-11-30T22:17:26.327Z,50.70
2022-11-30T22:20:14.043Z,50.72
2022-11-30T22:23:00.726Z,44.13
2022-11-30T22:25:54.080Z,51.17
2022-11-30T22:28:42.435Z,44.47
2022-11-30T22:31:33.547Z,41.75
2022-11-30T22:34:20.765Z,39.88
2022-11-30T22:37:07.989Z,47.22
2022-11-30T22:39:54.879Z,50.47
2022-11-30T22:42:43.703Z,45.00
2022-11-30T22:45:30.715Z,46.42
2022-11-30T22:48:17.967Z,48.28
2022-11-30T22:51:06.685Z,51.47
2022-11-30T22:53:54.539Z,54.15
2022-11-30T22:56:42.221Z,49.35
2022-11-30T22:59:30.773Z,46.58
2022-11-30T23:02:17.704Z,61.17
2022-11-30T23:05:05.154Z,52.83
2022-11-30T23:07:51.960Z,48.70
2022-11-30T23:10:39.474Z,55.72
2022-11-30T23:13:26.494Z,50.75
2022-11-30T23:16:16.062Z,44.25
2022-11-30T23:19:02.904Z,56.22
2022-11-30T23:21:50.264Z,50.88
2022-11-30T23:24:39.196Z,55.72
2022-11-30T23:27:26.610Z,54.22
2022-11-30T23:30:17.447Z,50.47
2022-11-30T23:33:09.125Z,48.47
2022-11-30T23:35:57.901Z,51.80
2022-11-30T23:38:45.003Z,55.20
2022-11-30T23:41:31.968Z,48.08
2022-11-30T23:44:19.500Z,44.63
2022-11-30T23:47:06.347Z,48.63
2022-11-30T23:49:54.846Z,46.70
2022-11-30T23:52:41.742Z,49.72
2022-11-30T23:55:29.388Z,51.63
2022-11-30T23:58:16.995Z,49.90
